Fort Harrison, MT (59636)

7:03 AM MST on November 19, 2017 (GMT -0700)
West Side | | Change Station
Active Advisory: High Wind Warning

Elev 3901 ft 46.61 °N, 112.06 °W | Updated 2 minutes ago

Clear
Clear
20.1 °F
Feels Like 20 °F
N
0.8
Wind Variable Wind from SW
Gusts 1.7 mph

Today
High -- | Low -- °F
--% Chance of Precip.
Yesterday
High -- | Low -- °F
Precip. -- in
Pressure 30.19 in
Visibility 10.0 miles
Clouds Clear
Windchill 20 °F
Dew Point 16 °F
Humidity 82%
Rainfall 0.00 in
Snow Depth Not available.
7:36 AM 4:50 PM
New Moon, 1% visible
METAR KHLN 191353Z 00000KT 10SM CLR M05/M08 A3003 RMK AO2 SLP222 T10501083
Pressure 30.19 in
Visibility 10.0 miles
Clouds Clear
Windchill 20 °F
Dew Point 16 °F
Humidity 82%
Rainfall 0.00 in
Snow Depth Not available.
7:36 AM 4:50 PM
New Moon, 1% visible
METAR KHLN 191353Z 00000KT 10SM CLR M05/M08 A3003 RMK AO2 SLP222 T10501083

Get Your Daily Forecast Email!

Thanks for signing up!

Be on the lookout for a verification email in your inbox.

You'll start receiving severe weather alerts in your inbox..

×

10-Day Weather Forecast

Almanac

Astronomy

Nov. 19, 2017 Rise Set
Actual Time
Civil Twilight
Nautical Twilight
Astronomical Twilight
Moon
Length of Visible Light
Length of Day
Tomorrow will be .
, % of the Moon is Illuminated

Today's Extremes

State Highs State Lows

Community

WunderPhotos

Category 6

Welcome to Category 6. This is the collective home for Weather Underground's featured writeups by Dr. Jeff Masters (right), Bob Henson (left), Chris Burt, and other regular contributors.

Nearby

Air Quality

  Air Quality AQ Index Pollutant
Not available.

Snow Depth

Station Depth Elevation

Earthquake Activity

City Distance Mag. Time & Date
Minimum magnitude displayed is 2.5.

Coastal Water Temperatures

Place Temperature

Stations

Nearby Weather Stations

Station Location Temp. Windchill Dew Point Humidity Wind Precip. Elev Updated Type
                   

Watches & Warnings

High Wind Warning
Issued: 3:09 AM MST Nov. 19, 2017 – National Weather Service

... High Wind Warning in effect from noon today to 8 am MST
Monday...

The National Weather Service in Great Falls has issued a High
Wind Warning, which is in effect from noon today to 8 am MST
Monday. The high wind watch is no longer in effect.

* Winds: southwest 25 to 35 mph with gusts up to 60 mph.

* Timing: strong winds will increase this afternoon and evening,
peaking in strength tonight.

* Impacts: travel may be difficult, especially for high-profile
vehicles. Strong winds may blow down limbs, trees, and power
lines. Scattered power outages are possible.

Precautionary/preparedness actions...


A High Wind Warning means a hazardous high wind event is expected
or occurring. Sustained wind speeds of at least 40 mph, or gusts
of 58 mph or more, can lead to property damage.